sensor_id;sensor_type;location;lat;lon;timestamp;temperature;humidity
16347;DHT22;8283;48.504;13.734;2024-03-23T00:53:02;13.70;70.30
16347;DHT22;8283;48.504;13.734;2024-03-23T00:55:21;13.70;70.30
16347;DHT22;8283;48.504;13.734;2024-03-23T00:57:41;13.70;70.20
16347;DHT22;8283;48.504;13.734;2024-03-23T01:00:00;13.60;70.20
16347;DHT22;8283;48.504;13.734;2024-03-23T01:02:19;13.70;70.30
16347;DHT22;8283;48.504;13.734;2024-03-23T01:04:39;13.60;70.30
16347;DHT22;8283;48.504;13.734;2024-03-23T01:06:58;13.60;70.40
16347;DHT22;8283;48.504;13.734;2024-03-23T01:09:18;13.60;70.40
16347;DHT22;8283;48.504;13.734;2024-03-23T01:11:37;13.60;70.60
16347;DHT22;8283;48.504;13.734;2024-03-23T01:13:57;13.50;70.70
16347;DHT22;8283;48.504;13.734;2024-03-23T01:16:16;13.50;70.70
16347;DHT22;8283;48.504;13.734;2024-03-23T01:18:35;13.50;70.80
16347;DHT22;8283;48.504;13.734;2024-03-23T01:20:54;13.50;71.00
16347;DHT22;8283;48.504;13.734;2024-03-23T01:23:13;13.50;71.00
16347;DHT22;8283;48.504;13.734;2024-03-23T01:25:33;13.50;71.10
16347;DHT22;8283;48.504;13.734;2024-03-23T01:27:53;13.50;71.20
16347;DHT22;8283;48.504;13.734;2024-03-23T01:30:12;13.50;71.20
16347;DHT22;8283;48.504;13.734;2024-03-23T01:32:33;13.50;71.20
16347;DHT22;8283;48.504;13.734;2024-03-23T01:34:52;13.50;72.00
16347;DHT22;8283;48.504;13.734;2024-03-23T01:37:11;13.40;71.30
16347;DHT22;8283;48.504;13.734;2024-03-23T01:39:31;13.40;71.40
16347;DHT22;8283;48.504;13.734;2024-03-23T01:41:51;13.40;71.50
16347;DHT22;8283;48.504;13.734;2024-03-23T01:44:10;13.40;71.60
16347;DHT22;8283;48.504;13.734;2024-03-23T01:46:30;13.40;71.60
16347;DHT22;8283;48.504;13.734;2024-03-23T01:48:50;13.50;71.70
16347;DHT22;8283;48.504;13.734;2024-03-23T01:51:09;13.40;71.60
16347;DHT22;8283;48.504;13.734;2024-03-23T01:53:29;13.40;71.70
16347;DHT22;8283;48.504;13.734;2024-03-23T01:55:50;13.50;71.80
16347;DHT22;8283;48.504;13.734;2024-03-23T01:58:10;13.50;72.00
16347;DHT22;8283;48.504;13.734;2024-03-23T02:00:30;13.40;71.80
16347;DHT22;8283;48.504;13.734;2024-03-23T02:02:49;13.50;72.00
16347;DHT22;8283;48.504;13.734;2024-03-23T02:05:08;13.50;72.00
16347;DHT22;8283;48.504;13.734;2024-03-23T02:07:28;13.50;72.00
16347;DHT22;8283;48.504;13.734;2024-03-23T02:09:47;13.40;71.90
16347;DHT22;8283;48.504;13.734;2024-03-23T02:12:07;13.40;71.90
16347;DHT22;8283;48.504;13.734;2024-03-23T02:14:26;12.40;71.30
16347;DHT22;8283;48.504;13.734;2024-03-23T02:16:46;13.40;71.90
16347;DHT22;8283;48.504;13.734;2024-03-23T02:19:06;13.40;71.80
16347;DHT22;8283;48.504;13.734;2024-03-23T02:21:25;13.30;71.80
16347;DHT22;8283;48.504;13.734;2024-03-23T02:23:46;13.30;71.90
16347;DHT22;8283;48.504;13.734;2024-03-23T02:26:06;13.30;73.40
16347;DHT22;8283;48.504;13.734;2024-03-23T02:28:25;13.20;71.50
16347;DHT22;8283;48.504;13.734;2024-03-23T02:30:44;13.20;71.60
16347;DHT22;8283;48.504;13.734;2024-03-23T02:33:04;13.20;71.80
16347;DHT22;8283;48.504;13.734;2024-03-23T02:35:24;13.10;72.00
16347;DHT22;8283;48.504;13.734;2024-03-23T02:37:43;13.10;71.90
16347;DHT22;8283;48.504;13.734;2024-03-23T02:40:03;13.10;71.90
16347;DHT22;8283;48.504;13.734;2024-03-23T02:42:22;13.00;71.80
16347;DHT22;8283;48.504;13.734;2024-03-23T02:44:41;13.00;71.70
16347;DHT22;8283;48.504;13.734;2024-03-23T02:47:01;13.00;71.90
16347;DHT22;8283;48.504;13.734;2024-03-23T02:49:20;12.90;72.00
16347;DHT22;8283;48.504;13.734;2024-03-23T02:51:40;12.90;72.10
16347;DHT22;8283;48.504;13.734;2024-03-23T02:54:00;12.80;72.00
16347;DHT22;8283;48.504;13.734;2024-03-23T02:56:20;12.80;72.30
16347;DHT22;8283;48.504;13.734;2024-03-23T02:58:39;12.70;72.40
16347;DHT22;8283;48.504;13.734;2024-03-23T03:00:58;12.70;72.40
16347;DHT22;8283;48.504;13.734;2024-03-23T03:03:17;12.60;72.50
16347;DHT22;8283;48.504;13.734;2024-03-23T03:05:37;12.60;72.50
16347;DHT22;8283;48.504;13.734;2024-03-23T03:07:56;12.60;72.70
16347;DHT22;8283;48.504;13.734;2024-03-23T03:10:16;12.50;72.80
16347;DHT22;8283;48.504;13.734;2024-03-23T03:12:35;12.50;72.80
16347;DHT22;8283;48.504;13.734;2024-03-23T03:14:54;12.50;72.90
16347;DHT22;8283;48.504;13.734;2024-03-23T03:17:14;12.50;73.00
16347;DHT22;8283;48.504;13.734;2024-03-23T03:19:34;12.50;73.10
16347;DHT22;8283;48.504;13.734;2024-03-23T03:21:54;12.40;73.10
16347;DHT22;8283;48.504;13.734;2024-03-23T03:24:13;12.40;73.10
16347;DHT22;8283;48.504;13.734;2024-03-23T03:26:32;12.40;73.20
16347;DHT22;8283;48.504;13.734;2024-03-23T03:28:52;12.40;73.20
16347;DHT22;8283;48.504;13.734;2024-03-23T03:31:11;12.00;73.00
16347;DHT22;8283;48.504;13.734;2024-03-23T03:33:30;12.40;73.20
16347;DHT22;8283;48.504;13.734;2024-03-23T03:35:50;12.30;73.20
16347;DHT22;8283;48.504;13.734;2024-03-23T03:38:10;12.30;73.20
16347;DHT22;8283;48.504;13.734;2024-03-23T03:40:30;12.30;73.20
16347;DHT22;8283;48.504;13.734;2024-03-23T03:42:49;12.30;73.20
16347;DHT22;8283;48.504;13.734;2024-03-23T03:45:08;12.30;73.20
16347;DHT22;8283;48.504;13.734;2024-03-23T03:47:28;12.20;73.10
16347;DHT22;8283;48.504;13.734;2024-03-23T03:49:47;12.20;73.00
16347;DHT22;8283;48.504;13.734;2024-03-23T03:52:07;12.20;73.10
16347;DHT22;8283;48.504;13.734;2024-03-23T03:54:26;12.10;73.10
16347;DHT22;8283;48.504;13.734;2024-03-23T03:56:45;12.10;73.20
16347;DHT22;8283;48.504;13.734;2024-03-23T03:59:05;12.00;73.10
16347;DHT22;8283;48.504;13.734;2024-03-23T04:01:24;12.00;73.20
16347;DHT22;8283;48.504;13.734;2024-03-23T04:03:44;12.00;73.30
16347;DHT22;8283;48.504;13.734;2024-03-23T04:06:04;11.90;73.20
16347;DHT22;8283;48.504;13.734;2024-03-23T04:08:24;11.90;73.20
16347;DHT22;8283;48.504;13.734;2024-03-23T04:10:43;11.90;73.40
16347;DHT22;8283;48.504;13.734;2024-03-23T04:13:02;11.80;73.20
16347;DHT22;8283;48.504;13.734;2024-03-23T04:15:24;11.80;73.30
16347;DHT22;8283;48.504;13.734;2024-03-23T04:17:43;11.80;73.30
16347;DHT22;8283;48.504;13.734;2024-03-23T04:20:03;11.80;73.20
16347;DHT22;8283;48.504;13.734;2024-03-23T04:22:27;11.80;73.30
16347;DHT22;8283;48.504;13.734;2024-03-23T04:24:47;12.20;73.50
16347;DHT22;8283;48.504;13.734;2024-03-23T04:27:06;11.70;73.40
16347;DHT22;8283;48.504;13.734;2024-03-23T04:29:25;11.60;73.40
16347;DHT22;8283;48.504;13.734;2024-03-23T04:31:46;11.60;73.40
16347;DHT22;8283;48.504;13.734;2024-03-23T04:34:06;11.60;73.40
16347;DHT22;8283;48.504;13.734;2024-03-23T04:36:25;11.60;73.30
16347;DHT22;8283;48.504;13.734;2024-03-23T04:38:46;11.50;73.30
16347;DHT22;8283;48.504;13.734;2024-03-23T04:41:09;11.50;73.40
16347;DHT22;8283;48.504;13.734;2024-03-23T04:43:29;11.40;73.20
16347;DHT22;8283;48.504;13.734;2024-03-23T04:45:49;11.40;73.30
16347;DHT22;8283;48.504;13.734;2024-03-23T04:48:08;11.30;73.30
16347;DHT22;8283;48.504;13.734;2024-03-23T04:50:27;11.30;73.40
16347;DHT22;8283;48.504;13.734;2024-03-23T04:52:47;11.30;73.50
16347;DHT22;8283;48.504;13.734;2024-03-23T04:55:06;11.20;73.50
16347;DHT22;8283;48.504;13.734;2024-03-23T04:57:25;11.20;73.60
16347;DHT22;8283;48.504;13.734;2024-03-23T04:59:45;11.20;73.80
16347;DHT22;8283;48.504;13.734;2024-03-23T05:02:04;11.20;73.90
16347;DHT22;8283;48.504;13.734;2024-03-23T05:04:23;11.10;73.90
16347;DHT22;8283;48.504;13.734;2024-03-23T05:06:43;11.10;74.00
16347;DHT22;8283;48.504;13.734;2024-03-23T05:09:02;11.10;73.90
16347;DHT22;8283;48.504;13.734;2024-03-23T05:11:30;11.10;73.90
16347;DHT22;8283;48.504;13.734;2024-03-23T05:13:50;11.10;73.90
16347;DHT22;8283;48.504;13.734;2024-03-23T05:16:09;11.10;74.10
16347;DHT22;8283;48.504;13.734;2024-03-23T05:18:29;11.10;74.10
16347;DHT22;8283;48.504;13.734;2024-03-23T05:20:48;11.00;74.00
16347;DHT22;8283;48.504;13.734;2024-03-23T05:23:07;11.00;74.10
16347;DHT22;8283;48.504;13.734;2024-03-23T05:25:27;11.00;74.10
16347;DHT22;8283;48.504;13.734;2024-03-23T05:27:46;11.00;74.10
16347;DHT22;8283;48.504;13.734;2024-03-23T05:30:07;11.00;74.20
16347;DHT22;8283;48.504;13.734;2024-03-23T05:32:26;11.00;74.20
16347;DHT22;8283;48.504;13.734;2024-03-23T05:34:46;11.00;74.20
16347;DHT22;8283;48.504;13.734;2024-03-23T05:37:05;11.00;74.10
16347;DHT22;8283;48.504;13.734;2024-03-23T05:39:25;10.90;74.10
16347;DHT22;8283;48.504;13.734;2024-03-23T05:41:44;10.90;74.10
16347;DHT22;8283;48.504;13.734;2024-03-23T05:44:03;10.90;74.20
16347;DHT22;8283;48.504;13.734;2024-03-23T05:46:22;10.90;74.30
16347;DHT22;8283;48.504;13.734;2024-03-23T05:48:42;10.80;74.30
16347;DHT22;8283;48.504;13.734;2024-03-23T05:51:01;10.80;74.30
16347;DHT22;8283;48.504;13.734;2024-03-23T05:53:21;10.80;74.60
16347;DHT22;8283;48.504;13.734;2024-03-23T05:55:41;10.80;74.60
16347;DHT22;8283;48.504;13.734;2024-03-23T05:58:00;10.80;74.60
16347;DHT22;8283;48.504;13.734;2024-03-23T06:00:19;10.80;74.80
16347;DHT22;8283;48.504;13.734;2024-03-23T06:02:39;10.80;75.00
16347;DHT22;8283;48.504;13.734;2024-03-23T06:04:58;10.80;75.00
16347;DHT22;8283;48.504;13.734;2024-03-23T06:07:17;10.80;75.20
16347;DHT22;8283;48.504;13.734;2024-03-23T06:09:37;10.80;75.20
16347;DHT22;8283;48.504;13.734;2024-03-23T06:11:56;10.80;75.30
16347;DHT22;8283;48.504;13.734;2024-03-23T06:14:15;10.80;75.30
16347;DHT22;8283;48.504;13.734;2024-03-23T06:16:34;10.80;75.50
16347;DHT22;8283;48.504;13.734;2024-03-23T06:18:54;10.80;75.50
16347;DHT22;8283;48.504;13.734;2024-03-23T06:21:14;10.80;75.60
16347;DHT22;8283;48.504;13.734;2024-03-23T06:23:33;10.80;75.70
16347;DHT22;8283;48.504;13.734;2024-03-23T06:25:52;10.80;75.80
16347;DHT22;8283;48.504;13.734;2024-03-23T06:28:12;9.60;75.20
16347;DHT22;8283;48.504;13.734;2024-03-23T06:30:31;10.80;76.20
16347;DHT22;8283;48.504;13.734;2024-03-23T06:32:51;10.80;76.70
16347;DHT22;8283;48.504;13.734;2024-03-23T06:35:12;10.90;76.60
16347;DHT22;8283;48.504;13.734;2024-03-23T06:37:31;10.90;76.90
16347;DHT22;8283;48.504;13.734;2024-03-23T06:39:50;11.00;77.30
16347;DHT22;8283;48.504;13.734;2024-03-23T06:42:10;11.10;77.70
16347;DHT22;8283;48.504;13.734;2024-03-23T06:44:29;11.30;78.10
16347;DHT22;8283;48.504;13.734;2024-03-23T06:46:49;11.40;78.30
16347;DHT22;8283;48.504;13.734;2024-03-23T06:49:09;11.60;78.40
16347;DHT22;8283;48.504;13.734;2024-03-23T06:51:28;11.70;78.40
16347;DHT22;8283;48.504;13.734;2024-03-23T06:53:49;11.90;78.40
16347;DHT22;8283;48.504;13.734;2024-03-23T06:56:09;12.10;78.40
16347;DHT22;8283;48.504;13.734;2024-03-23T06:58:28;12.20;78.00
16347;DHT22;8283;48.504;13.734;2024-03-23T07:00:48;12.40;78.00
16347;DHT22;8283;48.504;13.734;2024-03-23T07:03:08;12.50;78.00
16347;DHT22;8283;48.504;13.734;2024-03-23T07:05:27;12.70;77.70
16347;DHT22;8283;48.504;13.734;2024-03-23T07:07:47;12.80;77.80
16347;DHT22;8283;48.504;13.734;2024-03-23T07:10:07;13.00;78.10
16347;DHT22;8283;48.504;13.734;2024-03-23T07:12:26;13.20;77.90
16347;DHT22;8283;48.504;13.734;2024-03-23T07:14:46;13.30;77.50
16347;DHT22;8283;48.504;13.734;2024-03-23T07:17:05;13.50;77.40
16347;DHT22;8283;48.504;13.734;2024-03-23T07:19:24;13.50;76.80
16347;DHT22;8283;48.504;13.734;2024-03-23T07:21:44;13.60;76.80
16347;DHT22;8283;48.504;13.734;2024-03-23T07:24:03;13.70;76.90
16347;DHT22;8283;48.504;13.734;2024-03-23T07:26:23;13.80;76.80
16347;DHT22;8283;48.504;13.734;2024-03-23T07:28:43;13.90;76.40
16347;DHT22;8283;48.504;13.734;2024-03-23T07:31:05;14.00;76.30
16347;DHT22;8283;48.504;13.734;2024-03-23T07:33:25;14.00;76.00
16347;DHT22;8283;48.504;13.734;2024-03-23T07:35:44;14.00;76.70
16347;DHT22;8283;48.504;13.734;2024-03-23T07:38:03;14.10;76.10
16347;DHT22;8283;48.504;13.734;2024-03-23T07:40:24;14.10;76.30
16347;DHT22;8283;48.504;13.734;2024-03-23T07:42:44;14.20;76.30
16347;DHT22;8283;48.504;13.734;2024-03-23T07:45:03;14.30;76.60
16347;DHT22;8283;48.504;13.734;2024-03-23T07:47:23;14.40;76.70
16347;DHT22;8283;48.504;13.734;2024-03-23T07:49:42;14.60;76.80
16347;DHT22;8283;48.504;13.734;2024-03-23T07:52:01;14.70;76.90
16347;DHT22;8283;48.504;13.734;2024-03-23T07:54:21;14.90;77.00
16347;DHT22;8283;48.504;13.734;2024-03-23T07:56:40;15.10;77.00
16347;DHT22;8283;48.504;13.734;2024-03-23T07:58:59;15.30;76.80
16347;DHT22;8283;48.504;13.734;2024-03-23T08:01:19;15.50;76.80
16347;DHT22;8283;48.504;13.734;2024-03-23T08:03:40;15.70;76.90
16347;DHT22;8283;48.504;13.734;2024-03-23T08:06:14;15.90;76.70
16347;DHT22;8283;48.504;13.734;2024-03-23T08:08:34;16.20;76.10
16347;DHT22;8283;48.504;13.734;2024-03-23T08:10:53;16.40;76.40
16347;DHT22;8283;48.504;13.734;2024-03-23T08:13:12;16.60;76.30
16347;DHT22;8283;48.504;13.734;2024-03-23T08:15:32;16.80;76.10
16347;DHT22;8283;48.504;13.734;2024-03-23T08:17:52;17.00;76.00
16347;DHT22;8283;48.504;13.734;2024-03-23T08:20:12;17.20;75.90
16347;DHT22;8283;48.504;13.734;2024-03-23T08:22:31;17.50;75.80
16347;DHT22;8283;48.504;13.734;2024-03-23T08:24:51;17.60;75.40
16347;DHT22;8283;48.504;13.734;2024-03-23T08:27:10;17.80;75.30
16347;DHT22;8283;48.504;13.734;2024-03-23T08:29:30;18.10;75.20
16347;DHT22;8283;48.504;13.734;2024-03-23T08:31:49;18.30;74.90
16347;DHT22;8283;48.504;13.734;2024-03-23T08:34:09;18.50;74.60
16347;DHT22;8283;48.504;13.734;2024-03-23T08:36:28;18.70;74.30
16347;DHT22;8283;48.504;13.734;2024-03-23T08:38:48;18.90;73.80
16347;DHT22;8283;48.504;13.734;2024-03-23T08:41:10;19.10;73.50
16347;DHT22;8283;48.504;13.734;2024-03-23T08:43:31;19.30;73.10
16347;DHT22;8283;48.504;13.734;2024-03-23T08:45:51;19.50;73.10
16347;DHT22;8283;48.504;13.734;2024-03-23T08:48:11;19.80;73.20
16347;DHT22;8283;48.504;13.734;2024-03-23T08:50:30;20.00;73.10
16347;DHT22;8283;48.504;13.734;2024-03-23T08:52:51;20.30;72.50
16347;DHT22;8283;48.504;13.734;2024-03-23T08:55:10;20.70;72.10
16347;DHT22;8283;48.504;13.734;2024-03-23T08:57:29;21.00;67.30
16347;DHT22;8283;48.504;13.734;2024-03-23T08:59:49;21.20;66.00
16347;DHT22;8283;48.504;13.734;2024-03-23T09:02:08;21.50;68.00
16347;DHT22;8283;48.504;13.734;2024-03-23T09:04:28;21.70;68.00
16347;DHT22;8283;48.504;13.734;2024-03-23T09:06:47;21.90;67.00
16347;DHT22;8283;48.504;13.734;2024-03-23T09:09:07;22.10;65.90
16347;DHT22;8283;48.504;13.734;2024-03-23T09:11:26;22.20;65.70
16347;DHT22;8283;48.504;13.734;2024-03-23T09:13:46;22.40;65.20
16347;DHT22;8283;48.504;13.734;2024-03-23T09:16:06;22.30;64.80
16347;DHT22;8283;48.504;13.734;2024-03-23T09:18:26;22.30;64.10
16347;DHT22;8283;48.504;13.734;2024-03-23T09:20:46;22.30;64.20
16347;DHT22;8283;48.504;13.734;2024-03-23T09:23:05;22.40;64.40
16347;DHT22;8283;48.504;13.734;2024-03-23T09:25:25;22.50;62.50
16347;DHT22;8283;48.504;13.734;2024-03-23T09:27:46;22.40;63.60
16347;DHT22;8283;48.504;13.734;2024-03-23T09:30:06;22.50;62.80
16347;DHT22;8283;48.504;13.734;2024-03-23T09:32:26;22.40;61.60
16347;DHT22;8283;48.504;13.734;2024-03-23T09:34:45;22.40;61.80
16347;DHT22;8283;48.504;13.734;2024-03-23T09:37:04;22.60;61.80
16347;DHT22;8283;48.504;13.734;2024-03-23T09:39:24;22.20;61.20
16347;DHT22;8283;48.504;13.734;2024-03-23T09:41:43;22.00;60.90
16347;DHT22;8283;48.504;13.734;2024-03-23T09:44:03;21.90;60.80
16347;DHT22;8283;48.504;13.734;2024-03-23T09:46:22;21.70;60.00
16347;DHT22;8283;48.504;13.734;2024-03-23T09:48:43;21.40;60.10
16347;DHT22;8283;48.504;13.734;2024-03-23T09:51:06;21.10;59.60
16347;DHT22;8283;48.504;13.734;2024-03-23T09:53:28;20.80;59.60
16347;DHT22;8283;48.504;13.734;2024-03-23T09:55:47;20.30;59.70
16347;DHT22;8283;48.504;13.734;2024-03-23T09:58:12;19.80;59.90
16347;DHT22;8283;48.504;13.734;2024-03-23T10:00:32;19.40;60.40
16347;DHT22;8283;48.504;13.734;2024-03-23T10:02:55;19.00;60.90
16347;DHT22;8283;48.504;13.734;2024-03-23T10:05:20;18.60;61.30
16347;DHT22;8283;48.504;13.734;2024-03-23T10:07:41;18.30;61.70
16347;DHT22;8283;48.504;13.734;2024-03-23T10:10:10;17.90;62.10
16347;DHT22;8283;48.504;13.734;2024-03-23T10:12:30;17.70;62.70
16347;DHT22;8283;48.504;13.734;2024-03-23T10:14:49;17.40;62.90
16347;DHT22;8283;48.504;13.734;2024-03-23T10:17:16;17.20;63.40
16347;DHT22;8283;48.504;13.734;2024-03-23T10:19:40;17.00;63.90
16347;DHT22;8283;48.504;13.734;2024-03-23T10:22:01;16.80;63.70
16347;DHT22;8283;48.504;13.734;2024-03-23T10:24:20;16.70;63.70
16347;DHT22;8283;48.504;13.734;2024-03-23T10:26:39;16.50;63.60
16347;DHT22;8283;48.504;13.734;2024-03-23T10:29:00;16.40;63.80
16347;DHT22;8283;48.504;13.734;2024-03-23T10:31:31;16.20;63.90
16347;DHT22;8283;48.504;13.734;2024-03-23T10:33:51;16.10;64.10
16347;DHT22;8283;48.504;13.734;2024-03-23T10:36:13;16.00;64.20
16347;DHT22;8283;48.504;13.734;2024-03-23T10:38:32;15.90;64.30
16347;DHT22;8283;48.504;13.734;2024-03-23T10:40:53;15.80;64.60
16347;DHT22;8283;48.504;13.734;2024-03-23T10:43:12;15.70;64.70
16347;DHT22;8283;48.504;13.734;2024-03-23T10:45:32;15.70;65.10
16347;DHT22;8283;48.504;13.734;2024-03-23T10:47:51;15.60;65.00
16347;DHT22;8283;48.504;13.734;2024-03-23T10:50:11;15.50;66.00
16347;DHT22;8283;48.504;13.734;2024-03-23T10:52:30;15.40;65.60
16347;DHT22;8283;48.504;13.734;2024-03-23T10:54:51;15.40;65.60
16347;DHT22;8283;48.504;13.734;2024-03-23T10:57:15;15.30;66.20
16347;DHT22;8283;48.504;13.734;2024-03-23T10:59:37;15.30;66.20
16347;DHT22;8283;48.504;13.734;2024-03-23T11:01:58;15.20;66.40
16347;DHT22;8283;48.504;13.734;2024-03-23T11:04:33;15.20;66.30
16347;DHT22;8283;48.504;13.734;2024-03-23T11:06:53;15.20;66.90
16347;DHT22;8283;48.504;13.734;2024-03-23T11:11:54;15.10;67.70
16347;DHT22;8283;48.504;13.734;2024-03-23T11:14:22;15.10;66.80
16347;DHT22;8283;48.504;13.734;2024-03-23T11:16:43;15.10;67.60
16347;DHT22;8283;48.504;13.734;2024-03-23T11:21:53;15.00;68.20
16347;DHT22;8283;48.504;13.734;2024-03-23T11:24:14;14.90;67.20
16347;DHT22;8283;48.504;13.734;2024-03-23T11:26:38;14.90;67.20
16347;DHT22;8283;48.504;13.734;2024-03-23T11:29:15;14.90;67.80
16347;DHT22;8283;48.504;13.734;2024-03-23T11:31:37;14.90;68.30
16347;DHT22;8283;48.504;13.734;2024-03-23T12:24:52;11.90;73.60
16347;DHT22;8283;48.504;13.734;2024-03-23T12:27:12;12.30;77.30
16347;DHT22;8283;48.504;13.734;2024-03-23T12:29:31;12.00;74.80
16347;DHT22;8283;48.504;13.734;2024-03-23T12:31:51;12.30;75.20
16347;DHT22;8283;48.504;13.734;2024-03-23T12:34:10;12.60;73.90
16347;DHT22;8283;48.504;13.734;2024-03-23T12:36:30;12.80;73.60
16347;DHT22;8283;48.504;13.734;2024-03-23T12:38:49;13.10;73.60
16347;DHT22;8283;48.504;13.734;2024-03-23T12:41:09;13.70;73.80
16347;DHT22;8283;48.504;13.734;2024-03-23T12:43:29;13.60;73.10
16347;DHT22;8283;48.504;13.734;2024-03-23T12:45:49;13.80;72.60
16347;DHT22;8283;48.504;13.734;2024-03-23T12:48:09;13.90;72.10
16347;DHT22;8283;48.504;13.734;2024-03-23T12:50:28;14.00;71.90
16347;DHT22;8283;48.504;13.734;2024-03-23T12:52:48;14.10;71.50
16347;DHT22;8283;48.504;13.734;2024-03-23T12:55:07;14.20;71.30
16347;DHT22;8283;48.504;13.734;2024-03-23T12:57:27;14.30;71.00
16347;DHT22;8283;48.504;13.734;2024-03-23T12:59:46;15.10;71.20
16347;DHT22;8283;48.504;13.734;2024-03-23T13:02:10;14.60;70.70
16347;DHT22;8283;48.504;13.734;2024-03-23T13:04:30;14.40;70.20
16347;DHT22;8283;48.504;13.734;2024-03-23T13:06:49;14.40;69.60
16347;DHT22;8283;48.504;13.734;2024-03-23T13:09:08;14.20;68.80
16347;DHT22;8283;48.504;13.734;2024-03-23T13:11:28;14.10;68.70
16347;DHT22;8283;48.504;13.734;2024-03-23T13:13:47;13.90;68.40
16347;DHT22;8283;48.504;13.734;2024-03-23T13:16:06;13.70;68.40
16347;DHT22;8283;48.504;13.734;2024-03-23T13:18:26;13.60;68.70
16347;DHT22;8283;48.504;13.734;2024-03-23T13:20:45;13.40;68.70
16347;DHT22;8283;48.504;13.734;2024-03-23T13:23:04;13.30;68.70
16347;DHT22;8283;48.504;13.734;2024-03-23T13:25:24;13.10;68.90
16347;DHT22;8283;48.504;13.734;2024-03-23T13:27:43;13.00;68.90
16347;DHT22;8283;48.504;13.734;2024-03-23T13:30:03;13.00;69.00
16347;DHT22;8283;48.504;13.734;2024-03-23T13:32:23;12.90;69.20
16347;DHT22;8283;48.504;13.734;2024-03-23T13:34:42;12.90;69.20
16347;DHT22;8283;48.504;13.734;2024-03-23T13:37:01;12.90;69.40
16347;DHT22;8283;48.504;13.734;2024-03-23T13:39:21;12.90;69.50
16347;DHT22;8283;48.504;13.734;2024-03-23T13:41:44;12.90;69.60
16347;DHT22;8283;48.504;13.734;2024-03-23T13:44:03;12.90;70.10
16347;DHT22;8283;48.504;13.734;2024-03-23T13:46:22;12.90;70.10
16347;DHT22;8283;48.504;13.734;2024-03-23T13:48:42;12.90;70.40
16347;DHT22;8283;48.504;13.734;2024-03-23T13:51:03;12.90;70.40
16347;DHT22;8283;48.504;13.734;2024-03-23T13:53:23;13.00;70.20
16347;DHT22;8283;48.504;13.734;2024-03-23T13:55:49;13.00;70.20
16347;DHT22;8283;48.504;13.734;2024-03-23T13:58:08;13.00;70.80
16347;DHT22;8283;48.504;13.734;2024-03-23T14:00:30;13.00;70.20
16347;DHT22;8283;48.504;13.734;2024-03-23T14:02:51;13.00;69.70
16347;DHT22;8283;48.504;13.734;2024-03-23T14:05:10;13.10;69.70
16347;DHT22;8283;48.504;13.734;2024-03-23T14:07:30;13.10;69.70
16347;DHT22;8283;48.504;13.734;2024-03-23T14:09:50;13.10;69.70
16347;DHT22;8283;48.504;13.734;2024-03-23T14:12:14;13.10;69.50
16347;DHT22;8283;48.504;13.734;2024-03-23T14:14:33;13.10;69.40
16347;DHT22;8283;48.504;13.734;2024-03-23T14:16:52;13.10;69.30
16347;DHT22;8283;48.504;13.734;2024-03-23T14:19:12;13.10;69.20
16347;DHT22;8283;48.504;13.734;2024-03-23T14:21:31;13.20;69.30
16347;DHT22;8283;48.504;13.734;2024-03-23T14:23:51;13.20;69.10
16347;DHT22;8283;48.504;13.734;2024-03-23T14:26:10;13.20;69.00
16347;DHT22;8283;48.504;13.734;2024-03-23T14:28:29;13.20;68.70
16347;DHT22;8283;48.504;13.734;2024-03-23T14:30:54;13.10;68.40
16347;DHT22;8283;48.504;13.734;2024-03-23T14:33:14;13.10;68.00
16347;DHT22;8283;48.504;13.734;2024-03-23T14:35:33;13.10;67.80
16347;DHT22;8283;48.504;13.734;2024-03-23T14:37:53;13.00;67.70
16347;DHT22;8283;48.504;13.734;2024-03-23T14:40:12;13.00;67.70
16347;DHT22;8283;48.504;13.734;2024-03-23T14:42:32;12.90;67.10
16347;DHT22;8283;48.504;13.734;2024-03-23T14:44:52;12.90;66.50
16347;DHT22;8283;48.504;13.734;2024-03-23T14:47:12;12.90;66.90
16347;DHT22;8283;48.504;13.734;2024-03-23T14:49:32;12.70;67.20
16347;DHT22;8283;48.504;13.734;2024-03-23T14:51:51;12.80;67.30
16347;DHT22;8283;48.504;13.734;2024-03-23T14:54:10;12.80;67.40
16347;DHT22;8283;48.504;13.734;2024-03-23T14:56:29;12.80;67.40
16347;DHT22;8283;48.504;13.734;2024-03-23T14:58:52;12.80;67.20
16347;DHT22;8283;48.504;13.734;2024-03-23T15:01:11;12.80;67.60
16347;DHT22;8283;48.504;13.734;2024-03-23T15:03:31;12.80;67.90
16347;DHT22;8283;48.504;13.734;2024-03-23T15:05:58;12.90;68.20
16347;DHT22;8283;48.504;13.734;2024-03-23T15:08:19;12.90;67.80
16347;DHT22;8283;48.504;13.734;2024-03-23T15:10:38;13.00;68.00
16347;DHT22;8283;48.504;13.734;2024-03-23T15:12:59;13.00;68.00
16347;DHT22;8283;48.504;13.734;2024-03-23T15:15:18;13.00;68.10
16347;DHT22;8283;48.504;13.734;2024-03-23T15:17:37;13.10;68.20
16347;DHT22;8283;48.504;13.734;2024-03-23T15:20:00;13.10;68.10
16347;DHT22;8283;48.504;13.734;2024-03-23T15:22:20;13.20;68.10
16347;DHT22;8283;48.504;13.734;2024-03-23T15:24:40;13.20;67.90
16347;DHT22;8283;48.504;13.734;2024-03-23T15:26:59;13.40;67.80
16347;DHT22;8283;48.504;13.734;2024-03-23T15:29:21;13.30;67.70
16347;DHT22;8283;48.504;13.734;2024-03-23T15:31:41;13.30;67.40
16347;DHT22;8283;48.504;13.734;2024-03-23T15:34:00;13.30;67.50
16347;DHT22;8283;48.504;13.734;2024-03-23T15:36:20;13.30;67.50
16347;DHT22;8283;48.504;13.734;2024-03-23T15:38:39;13.30;67.60
16347;DHT22;8283;48.504;13.734;2024-03-23T15:40:59;13.40;67.40
16347;DHT22;8283;48.504;13.734;2024-03-23T15:43:19;13.40;67.40
16347;DHT22;8283;48.504;13.734;2024-03-23T15:45:38;13.40;67.20
16347;DHT22;8283;48.504;13.734;2024-03-23T15:47:58;13.40;67.20
16347;DHT22;8283;48.504;13.734;2024-03-23T15:50:17;13.40;67.30
16347;DHT22;8283;48.504;13.734;2024-03-23T15:52:36;13.40;67.20
16347;DHT22;8283;48.504;13.734;2024-03-23T15:54:56;13.40;67.20
16347;DHT22;8283;48.504;13.734;2024-03-23T15:57:17;13.50;67.20
16347;DHT22;8283;48.504;13.734;2024-03-23T15:59:40;13.40;67.20
16347;DHT22;8283;48.504;13.734;2024-03-23T16:02:00;13.40;66.80
16347;DHT22;8283;48.504;13.734;2024-03-23T16:04:19;13.40;66.10
16347;DHT22;8283;48.504;13.734;2024-03-23T16:06:38;13.30;65.90
16347;DHT22;8283;48.504;13.734;2024-03-23T16:08:58;13.20;66.00
16347;DHT22;8283;48.504;13.734;2024-03-23T16:11:17;13.10;65.60
16347;DHT22;8283;48.504;13.734;2024-03-23T16:13:36;13.00;65.30
16347;DHT22;8283;48.504;13.734;2024-03-23T16:18:16;12.80;65.30
16347;DHT22;8283;48.504;13.734;2024-03-23T16:20:35;12.70;65.30
16347;DHT22;8283;48.504;13.734;2024-03-23T16:22:56;12.60;65.50
16347;DHT22;8283;48.504;13.734;2024-03-23T16:25:15;12.60;65.50
16347;DHT22;8283;48.504;13.734;2024-03-23T16:27:35;12.50;65.50
16347;DHT22;8283;48.504;13.734;2024-03-23T16:29:54;12.50;65.60
16347;DHT22;8283;48.504;13.734;2024-03-23T16:32:14;12.40;65.70
16347;DHT22;8283;48.504;13.734;2024-03-23T16:34:33;12.40;66.00